createdAt,value
2023-05-05T00:02:10.764Z,93622.97
2023-05-05T00:05:14.199Z,93620.97
2023-05-05T00:08:18.192Z,93627.25
2023-05-05T00:11:22.064Z,93618.84
2023-05-05T00:14:26.878Z,93619.28
2023-05-05T00:17:30.206Z,93624.69
2023-05-05T00:20:33.430Z,93626.13
2023-05-05T00:23:36.676Z,93622.19
2023-05-05T00:26:39.804Z,93622.00
2023-05-05T00:29:43.009Z,93628.59
2023-05-05T00:32:49.277Z,93626.06
2023-05-05T00:35:52.505Z,93619.66
2023-05-05T00:38:55.755Z,93626.34
2023-05-05T00:42:00.066Z,93625.38
2023-05-05T00:45:03.256Z,93614.78
2023-05-05T00:48:07.442Z,93610.81
2023-05-05T00:51:11.022Z,93620.06
2023-05-05T00:54:14.181Z,93626.34
2023-05-05T00:57:17.947Z,93617.31
2023-05-05T01:00:21.151Z,93624.34
2023-05-05T01:03:24.370Z,93620.81
2023-05-05T01:07:02.825Z,93614.22
2023-05-05T01:10:20.352Z,93616.94
2023-05-05T01:13:27.622Z,93620.91
2023-05-05T01:16:35.221Z,93619.09
2023-05-05T01:19:51.734Z,93614.56
2023-05-05T01:23:00.354Z,93609.44
2023-05-05T01:26:25.383Z,93599.53
2023-05-05T01:29:42.197Z,93604.66
2023-05-05T01:32:55.993Z,93599.19
2023-05-05T01:36:11.370Z,93598.97
2023-05-05T01:39:17.394Z,93594.22
2023-05-05T01:42:23.160Z,93600.56
2023-05-05T01:45:29.451Z,93593.13
2023-05-05T01:48:34.089Z,93600.84
2023-05-05T01:51:38.461Z,93589.28
2023-05-05T01:54:43.176Z,93581.88
2023-05-05T01:57:48.363Z,93587.69
2023-05-05T02:00:53.894Z,93586.69
2023-05-05T02:04:00.127Z,93590.03
2023-05-05T02:07:05.716Z,93578.22
2023-05-05T02:10:11.022Z,93580.09
2023-05-05T02:13:16.137Z,93579.66
2023-05-05T02:16:20.564Z,93576.63
2023-05-05T02:19:30.001Z,93572.72
2023-05-05T02:22:33.908Z,93575.38
2023-05-05T02:25:42.035Z,93569.84
2023-05-05T02:29:03.930Z,93568.22
2023-05-05T02:32:12.448Z,93570.00
2023-05-05T02:35:28.227Z,93559.47
2023-05-05T02:38:32.802Z,93558.97
2023-05-05T02:41:40.107Z,93550.25
2023-05-05T02:44:51.696Z,93549.47
2023-05-05T02:47:55.672Z,93554.81
2023-05-05T02:50:59.722Z,93551.44
2023-05-05T02:54:08.198Z,93538.38
2023-05-05T02:57:15.417Z,93533.91
2023-05-05T03:00:29.221Z,93528.53
2023-05-05T03:03:41.721Z,93535.56
2023-05-05T03:06:50.905Z,93534.97
2023-05-05T03:10:05.015Z,93546.88
2023-05-05T03:13:12.374Z,93538.69
2023-05-05T03:16:20.223Z,93535.44
2023-05-05T03:19:24.565Z,93534.19
2023-05-05T03:22:36.408Z,93517.44
2023-05-05T03:25:47.726Z,93521.63
2023-05-05T03:28:59.364Z,93523.84
2023-05-05T03:32:07.109Z,93506.88
2023-05-05T03:35:10.735Z,93509.06
2023-05-05T03:38:13.938Z,93514.25
2023-05-05T03:41:18.622Z,93497.56
2023-05-05T03:44:21.991Z,93504.53
2023-05-05T03:47:25.429Z,93501.50
2023-05-05T03:50:29.988Z,93499.19
2023-05-05T03:53:33.191Z,93497.28
2023-05-05T03:56:38.801Z,93490.06
2023-05-05T03:59:42.033Z,93491.88
2023-05-05T04:02:45.819Z,93499.88
2023-05-05T04:05:52.175Z,93495.91
2023-05-05T04:08:56.291Z,93486.72
2023-05-05T04:11:59.551Z,93482.00
2023-05-05T04:15:03.023Z,93476.16
2023-05-05T04:18:06.579Z,93470.47
2023-05-05T04:21:09.862Z,93462.69
2023-05-05T04:24:13.930Z,93455.03
2023-05-05T04:27:17.178Z,93452.06
2023-05-05T04:30:21.096Z,93447.31
2023-05-05T04:33:24.365Z,93456.78
2023-05-05T04:36:28.134Z,93451.34
2023-05-05T04:39:33.839Z,93449.03
2023-05-05T04:42:38.299Z,93441.38
2023-05-05T04:45:42.016Z,93430.56
2023-05-05T04:48:45.781Z,93435.06
2023-05-05T04:51:49.419Z,93435.97
2023-05-05T04:54:52.662Z,93424.84
2023-05-05T04:57:56.112Z,93439.66
2023-05-05T05:01:00.113Z,93430.97
2023-05-05T05:04:03.438Z,93425.22
2023-05-05T05:07:06.651Z,93420.00
2023-05-05T05:10:10.578Z,93399.31
2023-05-05T05:13:13.941Z,93415.94
2023-05-05T05:16:17.310Z,93416.16
2023-05-05T05:19:21.282Z,93414.13
2023-05-05T05:22:25.521Z,93410.31
2023-05-05T05:25:29.325Z,93401.66
2023-05-05T05:28:32.503Z,93406.75
2023-05-05T05:31:37.417Z,93387.91
2023-05-05T05:34:40.841Z,93382.25
2023-05-05T05:37:46.566Z,93388.19
2023-05-05T05:40:50.876Z,93377.03
2023-05-05T05:43:54.285Z,93370.09
2023-05-05T05:46:57.716Z,93374.09
2023-05-05T05:50:01.468Z,93371.31
2023-05-05T05:53:05.683Z,93361.22
2023-05-05T05:56:09.599Z,93360.31
2023-05-05T05:59:13.224Z,93363.16
2023-05-05T06:02:17.953Z,93357.66
2023-05-05T06:05:21.996Z,93347.66
2023-05-05T06:08:28.179Z,93359.81
2023-05-05T06:11:35.610Z,93343.94
2023-05-05T06:14:38.951Z,93348.09
2023-05-05T06:17:42.210Z,93339.22
2023-05-05T06:20:45.556Z,93340.16
2023-05-05T06:23:51.599Z,93325.63
2023-05-05T06:26:55.193Z,93326.75
2023-05-05T06:29:58.358Z,93330.03
2023-05-05T06:33:01.637Z,93326.59
2023-05-05T06:36:05.160Z,93317.59
2023-05-05T06:39:08.439Z,93327.22
2023-05-05T06:42:11.860Z,93319.63
2023-05-05T06:45:15.132Z,93318.53
2023-05-05T06:48:19.046Z,93323.47
2023-05-05T06:51:23.386Z,93319.25
2023-05-05T06:54:26.749Z,93310.13
2023-05-05T06:57:29.901Z,93311.97
2023-05-05T07:00:33.048Z,93306.44
2023-05-05T07:03:36.512Z,93303.16
2023-05-05T07:06:39.674Z,93298.63
2023-05-05T07:09:42.940Z,93310.75
2023-05-05T07:12:47.064Z,93305.06
2023-05-05T07:15:50.489Z,93297.72
2023-05-05T07:18:53.746Z,93298.53
2023-05-05T07:21:56.872Z,93283.03
2023-05-05T07:25:00.072Z,93286.41
2023-05-05T07:28:03.357Z,93305.84
2023-05-05T07:31:06.622Z,93284.22
2023-05-05T07:34:09.746Z,93284.06
2023-05-05T07:37:12.939Z,93280.69
2023-05-05T07:40:16.407Z,93265.53
2023-05-05T07:43:19.577Z,93265.41
2023-05-05T07:46:22.694Z,93262.94
2023-05-05T07:49:26.048Z,93256.47
2023-05-05T07:52:44.176Z,93257.69
2023-05-05T07:55:49.493Z,93247.06
2023-05-05T07:58:52.601Z,93255.28
2023-05-05T08:01:55.785Z,93264.81
2023-05-05T08:04:58.948Z,93254.97
2023-05-05T08:08:02.215Z,93257.28
2023-05-05T08:11:07.080Z,93256.00
2023-05-05T08:14:10.366Z,93252.88
2023-05-05T08:17:13.541Z,93251.59
2023-05-05T08:20:18.187Z,93247.88
2023-05-05T08:23:21.766Z,93243.34
2023-05-05T08:26:25.412Z,93241.84
2023-05-05T08:29:28.731Z,93240.41
2023-05-05T08:32:32.908Z,93243.56
2023-05-05T08:35:36.204Z,93238.75
2023-05-05T08:38:40.530Z,93233.97
2023-05-05T08:41:43.861Z,93245.44
2023-05-05T08:44:47.150Z,93239.50
2023-05-05T08:47:50.372Z,93235.97
2023-05-05T08:51:00.360Z,93235.97
2023-05-05T08:54:07.781Z,93231.63
2023-05-05T08:57:11.957Z,93232.13
2023-05-05T09:00:18.645Z,93231.63
2023-05-05T09:03:22.159Z,93241.56
2023-05-05T09:06:27.573Z,93239.19
2023-05-05T09:09:31.736Z,93233.28
2023-05-05T09:12:35.252Z,93229.38
2023-05-05T09:15:39.629Z,93226.50
2023-05-05T09:18:43.402Z,93234.31
2023-05-05T09:21:50.289Z,93236.75
2023-05-05T09:24:57.499Z,93231.22
2023-05-05T09:28:10.559Z,93221.16
2023-05-05T09:31:16.892Z,93227.78
2023-05-05T09:34:20.105Z,93225.72
2023-05-05T09:37:32.574Z,93224.41
2023-05-05T09:40:49.681Z,93227.22
2023-05-05T09:43:53.441Z,93232.25
2023-05-05T09:46:58.896Z,93239.09
2023-05-05T09:50:02.588Z,93240.75
2023-05-05T09:53:05.759Z,93232.28
2023-05-05T09:56:09.280Z,93234.88
2023-05-05T09:59:12.895Z,93236.72
2023-05-05T10:02:16.275Z,93235.25
2023-05-05T10:05:20.233Z,93196.22
2023-05-05T10:08:41.844Z,93234.88
2023-05-05T10:11:48.126Z,93229.47
2023-05-05T10:14:57.372Z,93224.72
2023-05-05T10:18:07.455Z,93224.06
2023-05-05T10:21:13.449Z,93218.16
2023-05-05T10:24:28.102Z,93204.06
2023-05-05T10:27:38.186Z,93223.41
2023-05-05T10:30:47.164Z,93225.91
2023-05-05T10:34:06.748Z,93221.50
2023-05-05T10:37:12.299Z,93216.53
2023-05-05T10:40:16.778Z,93215.94
2023-05-05T10:43:20.363Z,93206.16
2023-05-05T10:46:24.388Z,93219.16
2023-05-05T10:49:46.083Z,93221.44
2023-05-05T10:52:59.582Z,93217.19
2023-05-05T10:56:19.412Z,93224.63
2023-05-05T10:59:37.952Z,93218.34
2023-05-05T11:02:42.561Z,93225.59
2023-05-05T11:06:06.588Z,93228.50
2023-05-05T11:09:42.776Z,93225.69
2023-05-05T11:13:03.228Z,93229.38
2023-05-05T11:16:27.059Z,93228.31
2023-05-05T11:19:45.925Z,93229.16
2023-05-05T11:23:05.195Z,93235.38
2023-05-05T11:26:09.734Z,93241.00
2023-05-05T11:29:12.952Z,93249.16
2023-05-05T11:32:16.684Z,93248.09
2023-05-05T11:35:20.114Z,93251.56
2023-05-05T11:38:30.950Z,93248.47
2023-05-05T11:41:34.136Z,93249.28
2023-05-05T11:44:37.545Z,93261.25
2023-05-05T11:47:40.799Z,93250.84
2023-05-05T11:50:44.298Z,93266.13
2023-05-05T11:53:52.536Z,93266.19
2023-05-05T11:56:59.756Z,93265.63
2023-05-05T12:00:08.211Z,93268.41
2023-05-05T12:03:12.779Z,93274.44
2023-05-05T12:06:16.185Z,93277.81
2023-05-05T12:09:21.308Z,93286.47
2023-05-05T12:12:43.693Z,93284.56
2023-05-05T12:15:47.248Z,93286.69
2023-05-05T12:19:11.123Z,93294.72
2023-05-05T12:22:22.138Z,93297.53
2023-05-05T12:25:25.439Z,93297.75
2023-05-05T12:28:46.012Z,93301.81
2023-05-05T12:31:49.439Z,93301.28
2023-05-05T12:35:01.376Z,93313.19
2023-05-05T12:38:18.637Z,93319.13
2023-05-05T12:41:35.200Z,93319.84
2023-05-05T12:44:42.565Z,93317.25
2023-05-05T12:47:48.903Z,93330.41
2023-05-05T12:50:53.198Z,93325.19
2023-05-05T12:54:26.130Z,93338.28
2023-05-05T12:57:29.890Z,93335.69
2023-05-05T13:00:37.989Z,93343.59
2023-05-05T13:03:45.592Z,93343.59
2023-05-05T13:06:59.215Z,93347.53
2023-05-05T13:10:12.536Z,93350.13
2023-05-05T13:13:18.710Z,93346.88
2023-05-05T13:16:52.201Z,93366.56
2023-05-05T13:19:55.877Z,93363.94
2023-05-05T13:23:03.521Z,93354.09
2023-05-05T13:26:07.645Z,93358.66
2023-05-05T13:29:11.665Z,93368.50
2023-05-05T13:32:15.449Z,93361.31
2023-05-05T13:35:19.368Z,93369.81
2023-05-05T13:38:22.570Z,93361.31
2023-05-05T13:41:26.744Z,93366.53
2023-05-05T13:44:30.172Z,93371.78
2023-05-05T13:47:33.322Z,93365.22
2023-05-05T13:50:36.622Z,93367.81
2023-05-05T13:53:44.363Z,93366.47
2023-05-05T13:56:47.615Z,93374.34
2023-05-05T13:59:50.859Z,93375.63
2023-05-05T14:02:56.691Z,93366.44
2023-05-05T14:06:00.717Z,93371.66
2023-05-05T14:09:06.657Z,93374.94
2023-05-05T14:12:09.812Z,93380.16
2023-05-05T14:15:13.155Z,93385.41
2023-05-05T14:18:16.304Z,93384.75
2023-05-05T14:21:22.278Z,93388.03
2023-05-05T14:24:25.555Z,93383.47
2023-05-05T14:27:31.428Z,93380.84
2023-05-05T14:30:34.650Z,93386.09
2023-05-05T14:33:37.879Z,93386.72
2023-05-05T14:36:41.928Z,93386.03
2023-05-05T14:39:45.119Z,93385.34
2023-05-05T14:42:51.852Z,93389.91
2023-05-05T14:45:55.178Z,93389.19
2023-05-05T14:48:59.469Z,93393.75
2023-05-05T14:52:02.944Z,93396.31
2023-05-05T14:55:06.738Z,93398.84
2023-05-05T14:58:09.910Z,93404.03
2023-05-05T15:01:13.349Z,93396.16
2023-05-05T15:04:17.613Z,93406.59
2023-05-05T15:07:21.991Z,93395.44
2023-05-05T15:10:25.285Z,93404.47
2023-05-05T15:13:28.516Z,93409.03
2023-05-05T15:16:33.773Z,93400.47
2023-05-05T15:19:38.177Z,93404.31
2023-05-05T15:22:41.625Z,93407.50
2023-05-05T15:25:44.806Z,93411.34
2023-05-05T15:28:49.745Z,93406.03
2023-05-05T15:31:53.505Z,93404.63
2023-05-05T15:34:57.024Z,93405.84
2023-05-05T15:38:00.270Z,93407.78
2023-05-05T15:41:03.428Z,93414.28
2023-05-05T15:44:06.821Z,93402.47
2023-05-05T15:47:11.580Z,93406.97
2023-05-05T15:50:15.016Z,93404.94
2023-05-05T15:53:18.239Z,93406.81
2023-05-05T15:56:21.423Z,93407.34
2023-05-05T15:59:24.582Z,93414.44
2023-05-05T16:02:27.989Z,93408.53
2023-05-05T16:05:31.275Z,93418.38
2023-05-05T16:08:35.505Z,93410.63
2023-05-05T16:11:38.660Z,93412.69
2023-05-05T16:14:41.886Z,93414.03
2023-05-05T16:17:45.157Z,93416.72
2023-05-05T16:20:48.485Z,93429.19
2023-05-05T16:23:51.785Z,93424.06
2023-05-05T16:26:55.065Z,93425.41
2023-05-05T16:29:59.722Z,93432.00
2023-05-05T16:33:03.135Z,93426.13
2023-05-05T16:36:06.661Z,93427.41
2023-05-05T16:39:09.827Z,93419.50
2023-05-05T16:42:13.902Z,93422.72
2023-05-05T16:45:17.193Z,93421.41
2023-05-05T16:48:20.783Z,93408.38
2023-05-05T16:51:24.290Z,93417.56
2023-05-05T16:54:27.457Z,93416.22
2023-05-05T16:57:30.728Z,93419.41
2023-05-05T17:00:33.985Z,93414.19
2023-05-05T17:03:37.156Z,93402.41
2023-05-05T17:06:40.482Z,93405.72
2023-05-05T17:09:43.703Z,93408.34
2023-05-05T17:12:46.995Z,93414.81
2023-05-05T17:15:50.306Z,93404.34
2023-05-05T17:18:55.290Z,93404.34
2023-05-05T17:21:58.237Z,93404.38
2023-05-05T17:25:01.383Z,93410.25
2023-05-05T17:28:04.632Z,93408.25
2023-05-05T17:31:07.832Z,93404.34
2023-05-05T17:34:11.256Z,93412.19
2023-05-05T17:37:14.493Z,93409.59
2023-05-05T17:40:17.663Z,93410.22
2023-05-05T17:43:20.972Z,93409.53
2023-05-05T17:46:24.152Z,93408.13
2023-05-05T17:49:27.466Z,93411.34
2023-05-05T17:52:30.705Z,93405.38
2023-05-05T17:55:33.929Z,93410.47
2023-05-05T17:58:37.080Z,93410.38
2023-05-05T18:01:40.316Z,93407.13
2023-05-05T18:04:44.060Z,93402.56
2023-05-05T18:07:47.397Z,93398.59
2023-05-05T18:10:50.495Z,93397.88
2023-05-05T18:13:53.740Z,93391.94
2023-05-05T18:16:56.948Z,93406.25
2023-05-05T18:20:00.112Z,93397.06
2023-05-05T18:23:03.268Z,93410.72
2023-05-05T18:26:06.961Z,93407.34
2023-05-05T18:29:10.368Z,93413.06
2023-05-05T18:32:13.499Z,93412.94
2023-05-05T18:35:16.828Z,93410.19
2023-05-05T18:38:20.262Z,93408.09
2023-05-05T18:41:23.410Z,93412.56
2023-05-05T18:44:26.663Z,93406.63
2023-05-05T18:47:30.004Z,93408.50
2023-05-05T18:50:33.926Z,93409.09
2023-05-05T18:53:37.109Z,93409.78
2023-05-05T18:56:40.571Z,93412.38
2023-05-05T18:59:43.674Z,93416.91
2023-05-05T19:02:47.114Z,93413.03
2023-05-05T19:05:50.428Z,93412.41
2023-05-05T19:08:53.656Z,93412.34
2023-05-05T19:11:56.940Z,93420.72
2023-05-05T19:15:00.184Z,93419.31
2023-05-05T19:18:03.396Z,93412.09
2023-05-05T19:21:06.611Z,93412.66
2023-05-05T19:24:10.491Z,93415.81
2023-05-05T19:27:16.361Z,93413.75
2023-05-05T19:30:20.074Z,93415.03
2023-05-05T19:33:23.730Z,93412.47
2023-05-05T19:36:26.958Z,93421.50
2023-05-05T19:39:30.109Z,93416.16
2023-05-05T19:42:33.336Z,93419.94
2023-05-05T19:45:36.537Z,93420.50
2023-05-05T19:48:39.812Z,93419.78
2023-05-05T19:51:43.402Z,93425.56
2023-05-05T19:54:46.775Z,93424.28
2023-05-05T19:57:49.910Z,93422.91
2023-05-05T20:00:53.013Z,93420.19
2023-05-05T20:03:57.292Z,93431.16
2023-05-05T20:07:00.644Z,93425.78
2023-05-05T20:10:03.827Z,93423.75
2023-05-05T20:13:07.065Z,93419.72
2023-05-05T20:16:10.396Z,93425.75
2023-05-05T20:19:13.730Z,93422.56
2023-05-05T20:22:21.142Z,93421.28
2023-05-05T20:25:27.537Z,93416.00
2023-05-05T20:28:32.288Z,93414.00
2023-05-05T20:31:35.660Z,93413.44
2023-05-05T20:34:39.847Z,93427.25
2023-05-05T20:37:43.221Z,93422.06
2023-05-05T20:40:46.427Z,93430.59
2023-05-05T20:43:49.599Z,93429.34
2023-05-05T20:46:52.858Z,93437.16
2023-05-05T20:49:56.077Z,93441.75
2023-05-05T20:52:59.792Z,93441.13
2023-05-05T20:56:02.989Z,93440.47
2023-05-05T20:59:06.768Z,93449.56
2023-05-05T21:02:10.081Z,93449.66
2023-05-05T21:05:13.332Z,93446.38
2023-05-05T21:08:16.733Z,93450.91
2023-05-05T21:11:19.865Z,93451.63
2023-05-05T21:14:23.824Z,93445.19
2023-05-05T21:17:30.419Z,93445.97
2023-05-05T21:20:33.602Z,93449.34
2023-05-05T21:23:36.861Z,93454.03
2023-05-05T21:26:46.582Z,93458.00
2023-05-05T21:29:51.896Z,93456.16
2023-05-05T21:32:54.999Z,93463.97
2023-05-05T21:35:58.329Z,93462.13
2023-05-05T21:39:01.614Z,93458.31
2023-05-05T21:42:04.972Z,93458.41
2023-05-05T21:45:08.676Z,93460.47
2023-05-05T21:48:14.554Z,93462.50
2023-05-05T21:51:18.123Z,93462.50
2023-05-05T21:54:21.219Z,93459.25
2023-05-05T21:57:24.569Z,93464.50
2023-05-05T22:00:27.961Z,93467.31
2023-05-05T22:03:31.265Z,93474.72
2023-05-05T22:06:34.552Z,93481.59
2023-05-05T22:09:38.017Z,93489.88
2023-05-05T22:12:41.733Z,93491.56
2023-05-05T22:15:47.261Z,93484.53
2023-05-05T22:18:51.204Z,93495.41
2023-05-05T22:21:55.412Z,93496.09
2023-05-05T22:24:58.626Z,93505.84
2023-05-05T22:28:01.846Z,93511.16
2023-05-05T22:31:05.463Z,93525.56
2023-05-05T22:34:09.097Z,93529.34
2023-05-05T22:37:12.226Z,93532.19
2023-05-05T22:40:15.444Z,93532.88
2023-05-05T22:43:18.547Z,93538.72
2023-05-05T22:46:21.842Z,93541.66
2023-05-05T22:49:25.051Z,93537.88
2023-05-05T22:52:29.659Z,93534.88
2023-05-05T22:55:32.579Z,93544.13
2023-05-05T22:58:35.736Z,93530.66
2023-05-05T23:01:38.950Z,93525.53
2023-05-05T23:04:42.480Z,93534.19
2023-05-05T23:07:45.868Z,93545.44
2023-05-05T23:10:49.116Z,93543.56
2023-05-05T23:13:52.286Z,93545.44
2023-05-05T23:16:55.523Z,93555.56
2023-05-05T23:19:58.844Z,93554.91
2023-05-05T23:23:02.012Z,93559.38
2023-05-05T23:26:05.498Z,93563.56
2023-05-05T23:29:08.756Z,93557.59
2023-05-05T23:32:12.003Z,93565.31
2023-05-05T23:35:15.235Z,93558.91
2023-05-05T23:38:18.433Z,93554.34
2023-05-05T23:41:21.685Z,93551.88
2023-05-05T23:44:24.997Z,93551.88
2023-05-05T23:47:28.264Z,93556.31
2023-05-05T23:50:31.584Z,93557.22
2023-05-05T23:53:34.784Z,93563.91
2023-05-05T23:56:38.140Z,93563.31
2023-05-05T23:59:41.323Z,93559.47
